createdAt,value
2017-11-20T00:01:39.133Z,11.73
2017-11-20T00:04:06.686Z,12.27
2017-11-20T00:06:34.214Z,12.93
2017-11-20T00:09:01.767Z,12.88
2017-11-20T00:11:29.299Z,14.10
2017-11-20T00:13:56.840Z,14.02
2017-11-20T00:16:24.398Z,13.57
2017-11-20T00:18:51.977Z,14.32
2017-11-20T00:21:19.505Z,13.85
2017-11-20T00:23:47.039Z,14.40
2017-11-20T00:26:14.575Z,15.50
2017-11-20T00:28:42.089Z,15.00
2017-11-20T00:31:09.640Z,15.15
2017-11-20T00:33:37.175Z,15.20
2017-11-20T00:36:04.717Z,16.20
2017-11-20T00:38:32.267Z,16.00
2017-11-20T00:40:59.832Z,15.68
2017-11-20T00:43:27.374Z,14.93
2017-11-20T00:45:54.896Z,15.25
2017-11-20T00:48:22.451Z,15.38
2017-11-20T00:50:49.980Z,16.90
2017-11-20T00:53:17.553Z,13.27
2017-11-20T00:55:45.487Z,15.75
2017-11-20T00:58:13.032Z,15.40
2017-11-20T01:00:40.560Z,14.98
2017-11-20T01:03:08.116Z,14.65
2017-11-20T01:05:35.636Z,14.27
2017-11-20T01:08:03.183Z,13.73
2017-11-20T01:10:30.729Z,14.35
2017-11-20T01:12:58.260Z,15.73
2017-11-20T01:15:25.805Z,15.63
2017-11-20T01:17:53.340Z,15.30
2017-11-20T01:20:20.913Z,16.40
2017-11-20T01:22:48.452Z,14.80
2017-11-20T01:25:16.000Z,16.20
2017-11-20T01:27:43.535Z,15.80
2017-11-20T01:30:11.075Z,14.02
2017-11-20T01:32:38.638Z,14.05
2017-11-20T01:35:06.181Z,14.40
2017-11-20T01:37:33.717Z,15.50
2017-11-20T01:40:01.239Z,15.65
2017-11-20T01:42:28.795Z,14.50
2017-11-20T01:44:56.319Z,14.30
2017-11-20T01:47:23.866Z,14.98
2017-11-20T01:49:51.388Z,13.68
2017-11-20T01:52:18.917Z,13.65
2017-11-20T01:54:46.521Z,14.43
2017-11-20T01:57:14.052Z,12.63
2017-11-20T01:59:41.987Z,12.15
2017-11-20T02:02:09.509Z,12.80
2017-11-20T02:04:37.060Z,12.07
2017-11-20T02:07:04.591Z,11.70
2017-11-20T02:09:32.152Z,12.43
2017-11-20T02:11:59.683Z,11.57
2017-11-20T02:14:27.603Z,10.80
2017-11-20T02:16:55.151Z,11.27
2017-11-20T02:19:22.690Z,10.75
2017-11-20T02:21:50.246Z,11.55
2017-11-20T02:24:18.178Z,11.63
2017-11-20T02:26:45.733Z,12.15
2017-11-20T02:29:13.249Z,12.93
2017-11-20T02:31:40.818Z,12.20
2017-11-20T02:34:08.337Z,12.15
2017-11-20T02:36:35.870Z,11.95
2017-11-20T02:39:03.423Z,13.45
2017-11-20T02:41:30.937Z,12.32
2017-11-20T02:43:58.490Z,12.07
2017-11-20T02:46:26.018Z,13.15
2017-11-20T02:48:53.577Z,13.40
2017-11-20T02:51:21.119Z,11.98
2017-11-20T02:53:48.685Z,12.90
2017-11-20T02:56:16.225Z,11.57
2017-11-20T02:58:43.755Z,10.57
2017-11-20T03:01:11.701Z,10.30
2017-11-20T03:03:39.293Z,11.55
2017-11-20T03:06:06.852Z,10.05
2017-11-20T03:08:34.375Z,9.65
2017-11-20T03:11:01.926Z,9.30
2017-11-20T03:13:29.467Z,9.65
2017-11-20T03:15:57.431Z,9.65
2017-11-20T03:18:24.970Z,8.80
2017-11-20T03:20:52.487Z,8.80
2017-11-20T03:23:20.042Z,9.57
2017-11-20T03:25:47.563Z,8.35
2017-11-20T03:28:15.092Z,8.10
2017-11-20T03:30:42.626Z,7.70
2017-11-20T03:33:10.165Z,7.62
2017-11-20T03:35:38.073Z,7.50
2017-11-20T03:38:05.653Z,7.40
2017-11-20T03:40:33.202Z,8.35
2017-11-20T03:43:00.716Z,8.70
2017-11-20T03:45:28.658Z,8.38
2017-11-20T03:47:56.190Z,8.55
2017-11-20T03:50:24.130Z,9.52
2017-11-20T03:52:51.644Z,9.98
2017-11-20T03:55:19.191Z,8.80
2017-11-20T03:57:46.734Z,8.20
2017-11-20T04:00:14.680Z,9.27
2017-11-20T04:02:42.216Z,9.77
2017-11-20T04:05:10.136Z,9.05
2017-11-20T04:07:37.664Z,10.10
2017-11-20T04:10:05.185Z,8.90
2017-11-20T04:12:32.730Z,10.70
2017-11-20T04:15:00.306Z,10.45
2017-11-20T04:17:27.875Z,10.40
2017-11-20T04:19:55.404Z,11.07
2017-11-20T04:22:22.941Z,10.30
2017-11-20T04:24:50.514Z,11.70
2017-11-20T04:27:18.444Z,10.48
2017-11-20T04:29:51.599Z,12.35
2017-11-20T04:32:19.546Z,11.75
2017-11-20T04:34:47.102Z,10.20
2017-11-20T04:37:14.623Z,11.02
2017-11-20T04:39:42.141Z,12.30
2017-11-20T04:42:09.681Z,12.32
2017-11-20T04:44:37.301Z,11.63
2017-11-20T04:47:04.837Z,11.60
2017-11-20T04:49:32.358Z,11.55
2017-11-20T04:51:59.936Z,12.30
2017-11-20T04:54:27.474Z,13.20
2017-11-20T04:56:55.010Z,12.60
2017-11-20T04:59:22.558Z,11.95
2017-11-20T05:01:50.104Z,12.55
2017-11-20T05:04:17.657Z,12.35
2017-11-20T05:06:45.186Z,12.68
2017-11-20T05:09:13.169Z,11.43
2017-11-20T05:11:40.706Z,13.43
2017-11-20T05:14:08.224Z,13.00
2017-11-20T05:16:35.799Z,13.55
2017-11-20T05:19:03.317Z,13.10
2017-11-20T05:21:30.854Z,12.77
2017-11-20T05:23:58.793Z,13.18
2017-11-20T05:26:26.345Z,13.13
2017-11-20T05:28:53.899Z,14.00
2017-11-20T05:31:21.427Z,12.55
2017-11-20T05:33:48.964Z,12.32
2017-11-20T05:36:16.506Z,12.00
2017-11-20T05:38:44.064Z,12.60
2017-11-20T05:41:11.603Z,12.88
2017-11-20T05:43:39.180Z,13.15
2017-11-20T05:46:07.283Z,12.30
2017-11-20T05:48:34.808Z,13.02
2017-11-20T05:51:02.347Z,13.10
2017-11-20T05:53:30.283Z,13.70
2017-11-20T05:55:57.843Z,12.15
2017-11-20T05:58:25.373Z,13.70
2017-11-20T06:00:52.927Z,13.85
2017-11-20T06:03:20.449Z,11.68
2017-11-20T06:05:48.389Z,12.43
2017-11-20T06:08:15.942Z,12.45
2017-11-20T06:10:43.874Z,11.93
2017-11-20T06:13:11.429Z,15.35
2017-11-20T06:15:39.351Z,12.82
2017-11-20T06:18:06.907Z,13.20
2017-11-20T06:20:34.439Z,13.13
2017-11-20T06:23:01.981Z,11.55
2017-11-20T06:25:29.509Z,11.10
2017-11-20T06:27:57.077Z,12.05
2017-11-20T06:30:24.625Z,12.63
2017-11-20T06:32:52.168Z,11.60
2017-11-20T06:35:19.713Z,10.95
2017-11-20T06:37:47.264Z,12.45
2017-11-20T06:40:14.823Z,11.68
2017-11-20T06:42:42.342Z,10.63
2017-11-20T06:45:09.901Z,12.07
2017-11-20T06:47:37.434Z,11.18
2017-11-20T06:50:04.967Z,10.38
2017-11-20T06:52:32.540Z,10.88
2017-11-20T06:55:00.076Z,10.90
2017-11-20T06:57:27.669Z,11.05
2017-11-20T06:59:55.584Z,11.02
2017-11-20T07:02:23.190Z,10.45
2017-11-20T07:04:50.728Z,8.88
2017-11-20T07:07:18.821Z,9.77
2017-11-20T07:09:46.779Z,11.15
2017-11-20T07:12:14.319Z,11.25
2017-11-20T07:14:41.865Z,10.70
2017-11-20T07:17:09.397Z,10.70
2017-11-20T07:19:36.971Z,11.55
2017-11-20T07:22:04.504Z,10.57
2017-11-20T07:24:32.037Z,11.52
2017-11-20T07:27:01.075Z,10.50
2017-11-20T07:29:40.465Z,9.32
2017-11-20T07:32:08.115Z,10.90
2017-11-20T07:34:47.348Z,10.20
2017-11-20T07:37:26.761Z,11.15
2017-11-20T07:40:06.938Z,10.05
2017-11-20T07:42:34.507Z,10.32
2017-11-20T07:45:02.039Z,9.73
2017-11-20T07:47:29.582Z,11.05
2017-11-20T07:49:57.099Z,10.38
2017-11-20T07:52:24.677Z,9.00
2017-11-20T07:54:52.198Z,8.80
2017-11-20T07:57:19.721Z,9.50
2017-11-20T07:59:47.269Z,8.77
2017-11-20T08:02:14.793Z,8.40
2017-11-20T08:04:42.329Z,9.15
2017-11-20T08:07:09.840Z,8.32
2017-11-20T08:09:37.369Z,7.97
2017-11-20T08:12:04.886Z,8.38
2017-11-20T08:14:32.431Z,7.30
2017-11-20T08:16:59.943Z,6.68
2017-11-20T08:19:27.499Z,7.82
2017-11-20T08:21:55.050Z,8.73
2017-11-20T08:24:23.014Z,7.65
2017-11-20T08:26:50.553Z,8.65
2017-11-20T08:29:18.092Z,7.50
2017-11-20T08:31:45.630Z,8.07
2017-11-20T08:34:13.171Z,9.00
2017-11-20T08:36:41.101Z,8.27
2017-11-20T08:39:08.634Z,8.55
2017-11-20T08:41:36.169Z,8.93
2017-11-20T08:44:03.698Z,7.90
2017-11-20T08:46:31.243Z,8.90
2017-11-20T08:48:58.771Z,9.88
2017-11-20T08:51:26.305Z,9.70
2017-11-20T08:53:53.838Z,11.10
2017-11-20T08:56:21.515Z,10.98
2017-11-20T08:58:49.047Z,8.98
2017-11-20T09:01:16.599Z,9.15
2017-11-20T09:03:44.124Z,6.55
2017-11-20T09:06:11.676Z,6.40
2017-11-20T09:08:39.203Z,7.28
2017-11-20T09:11:06.824Z,5.78
2017-11-20T09:13:34.362Z,7.78
2017-11-20T09:16:02.320Z,6.62
2017-11-20T09:18:29.851Z,6.25
2017-11-20T09:20:57.781Z,6.35
2017-11-20T09:23:25.312Z,4.90
2017-11-20T09:25:52.844Z,6.05
2017-11-20T09:28:20.789Z,7.70
2017-11-20T09:30:48.324Z,6.15
2017-11-20T09:33:15.854Z,7.53
2017-11-20T09:35:43.401Z,7.68
2017-11-20T09:38:10.938Z,7.72
2017-11-20T09:40:38.505Z,7.10
2017-11-20T09:43:06.030Z,6.78
2017-11-20T09:45:33.566Z,6.60
2017-11-20T09:48:01.501Z,6.40
2017-11-20T09:50:29.029Z,5.10
2017-11-20T09:52:56.565Z,4.95
2017-11-20T09:55:24.072Z,4.65
2017-11-20T09:57:51.602Z,4.30
2017-11-20T10:00:19.515Z,4.15
2017-11-20T10:02:47.061Z,3.40
2017-11-20T10:05:14.597Z,3.17
2017-11-20T10:07:42.147Z,2.35
2017-11-20T10:10:10.068Z,2.53
2017-11-20T10:12:37.626Z,2.25
2017-11-20T10:15:05.547Z,2.45
2017-11-20T10:17:33.097Z,2.30
2017-11-20T10:20:00.623Z,2.10
2017-11-20T10:22:28.158Z,1.65
2017-11-20T10:24:55.666Z,2.10
2017-11-20T10:27:23.201Z,2.87
2017-11-20T10:29:50.722Z,2.37
2017-11-20T10:32:18.272Z,1.98
2017-11-20T10:34:45.799Z,2.10
2017-11-20T10:37:13.356Z,1.70
2017-11-20T10:39:40.865Z,1.62
2017-11-20T10:42:08.408Z,1.70
2017-11-20T10:44:35.932Z,2.20
2017-11-20T10:47:03.475Z,1.60
2017-11-20T10:49:31.005Z,1.70
2017-11-20T10:51:58.536Z,1.90
2017-11-20T10:54:26.048Z,2.10
2017-11-20T10:56:53.604Z,2.10
2017-11-20T10:59:21.126Z,1.90
2017-11-20T11:01:48.676Z,2.00
2017-11-20T11:04:16.204Z,2.30
2017-11-20T11:06:43.737Z,2.65
2017-11-20T11:09:11.260Z,2.25
2017-11-20T11:11:38.772Z,2.65
2017-11-20T11:14:06.323Z,3.10
2017-11-20T11:16:33.851Z,3.10
2017-11-20T11:19:01.390Z,3.45
2017-11-20T11:21:29.293Z,3.70
2017-11-20T11:23:56.826Z,3.28
2017-11-20T11:26:24.353Z,3.53
2017-11-20T11:28:51.884Z,4.60
2017-11-20T11:31:19.390Z,3.70
2017-11-20T11:33:46.932Z,4.87
2017-11-20T11:36:16.471Z,4.62
2017-11-20T11:38:42.009Z,4.12
2017-11-20T11:41:09.535Z,5.20
2017-11-20T11:43:37.077Z,5.70
2017-11-20T11:46:04.606Z,5.78
2017-11-20T11:48:32.147Z,6.35
2017-11-20T11:50:59.661Z,5.80
2017-11-20T11:53:27.207Z,6.95
2017-11-20T11:55:55.160Z,6.93
2017-11-20T11:58:22.703Z,6.55
2017-11-20T12:00:50.213Z,7.70
2017-11-20T12:03:18.144Z,8.30
2017-11-20T12:05:45.654Z,8.98
2017-11-20T12:08:13.201Z,9.07
2017-11-20T12:10:41.125Z,7.53
2017-11-20T12:13:08.674Z,8.50
2017-11-20T12:15:36.641Z,9.02
2017-11-20T12:18:04.188Z,9.80
2017-11-20T12:20:31.724Z,10.23
2017-11-20T12:22:59.320Z,9.68
2017-11-20T12:25:26.864Z,9.70
2017-11-20T12:27:54.394Z,11.60
2017-11-20T12:30:21.905Z,10.65
2017-11-20T12:32:49.433Z,10.85
2017-11-20T12:35:16.971Z,11.35
2017-11-20T12:37:44.510Z,10.02
2017-11-20T12:40:12.051Z,11.43
2017-11-20T12:42:39.575Z,11.55
2017-11-20T12:45:07.206Z,10.80
2017-11-20T12:47:34.779Z,12.57
2017-11-20T12:50:02.308Z,12.00
2017-11-20T12:52:30.536Z,12.23
2017-11-20T12:54:58.117Z,11.77
2017-11-20T12:57:25.629Z,11.73
2017-11-20T12:59:53.182Z,13.07
2017-11-20T13:02:20.732Z,12.75
2017-11-20T13:04:48.283Z,12.55
2017-11-20T13:07:15.813Z,13.40
2017-11-20T13:09:43.368Z,12.90
2017-11-20T13:12:10.891Z,13.23
2017-11-20T13:14:38.444Z,13.90
2017-11-20T13:17:05.985Z,13.95
2017-11-20T13:19:33.521Z,14.63
2017-11-20T13:22:01.429Z,14.60
2017-11-20T13:24:28.973Z,14.73
2017-11-20T13:26:56.553Z,14.63
2017-11-20T13:29:24.100Z,15.18
2017-11-20T13:31:52.023Z,15.90
2017-11-20T13:34:19.570Z,16.80
2017-11-20T13:36:47.111Z,15.68
2017-11-20T13:39:14.659Z,17.90
2017-11-20T13:41:42.572Z,17.10
2017-11-20T13:44:10.508Z,17.00
2017-11-20T13:46:38.023Z,17.30
2017-11-20T13:49:05.603Z,17.83
2017-11-20T13:51:33.143Z,16.45
2017-11-20T13:54:00.702Z,17.73
2017-11-20T13:56:28.237Z,17.17
2017-11-20T13:58:55.767Z,18.87
2017-11-20T14:01:23.329Z,17.25
2017-11-20T14:03:50.864Z,18.55
2017-11-20T14:06:19.165Z,18.12
2017-11-20T14:08:46.686Z,19.20
2017-11-20T14:11:14.247Z,19.35
2017-11-20T14:13:41.766Z,19.30
2017-11-20T14:16:09.301Z,20.40
2017-11-20T14:18:36.833Z,21.08
2017-11-20T14:21:04.388Z,20.73
2017-11-20T14:23:32.320Z,21.40
2017-11-20T14:25:59.864Z,21.50
2017-11-20T14:28:27.401Z,19.50
2017-11-20T14:30:55.346Z,22.02
2017-11-20T14:33:22.874Z,20.90
2017-11-20T14:35:50.820Z,19.40
2017-11-20T14:38:18.341Z,20.75
2017-11-20T14:40:45.891Z,20.77
2017-11-20T14:43:13.408Z,20.98
2017-11-20T14:45:40.941Z,19.75
2017-11-20T14:51:25.344Z,20.95
2017-11-20T14:53:53.276Z,23.02
2017-11-20T14:56:20.830Z,20.20
2017-11-20T14:58:48.353Z,21.48
2017-11-20T15:01:16.845Z,21.33
2017-11-20T15:03:44.394Z,21.05
2017-11-20T15:06:11.950Z,22.05
2017-11-20T15:08:39.476Z,20.67
2017-11-20T15:11:07.425Z,19.98
2017-11-20T15:13:34.938Z,20.65
2017-11-20T15:16:02.500Z,19.48
2017-11-20T15:18:30.018Z,20.98
2017-11-20T15:20:57.561Z,20.48
2017-11-20T15:23:25.086Z,20.02
2017-11-20T15:25:52.637Z,18.95
2017-11-20T15:28:20.153Z,17.67
2017-11-20T15:30:47.690Z,18.75
2017-11-20T15:33:15.227Z,18.02
2017-11-20T15:35:42.769Z,19.52
2017-11-20T15:38:10.309Z,17.48
2017-11-20T15:40:37.836Z,18.05
2017-11-20T15:43:05.383Z,17.95
2017-11-20T15:45:32.898Z,18.90
2017-11-20T15:48:00.452Z,15.75
2017-11-20T15:50:27.968Z,17.65
2017-11-20T15:52:55.504Z,15.65
2017-11-20T15:55:23.021Z,16.17
2017-11-20T15:57:50.591Z,14.30
2017-11-20T16:00:18.317Z,14.45
2017-11-20T16:02:45.877Z,15.27
2017-11-20T16:05:13.825Z,15.07
2017-11-20T16:07:41.397Z,14.38
2017-11-20T16:10:08.909Z,13.75
2017-11-20T16:12:36.456Z,14.45
2017-11-20T16:15:03.987Z,13.70
2017-11-20T16:17:31.535Z,13.88
2017-11-20T16:19:59.049Z,11.52
2017-11-20T16:22:26.599Z,13.77
2017-11-20T16:24:54.146Z,12.45
2017-11-20T16:27:22.087Z,13.38
2017-11-20T16:29:49.604Z,13.32
2017-11-20T16:32:17.177Z,12.35
2017-11-20T16:34:44.698Z,12.98
2017-11-20T16:37:12.238Z,11.10
2017-11-20T16:39:39.753Z,10.75
2017-11-20T16:42:07.345Z,11.50
2017-11-20T16:44:34.878Z,11.60
2017-11-20T16:47:02.432Z,11.40
2017-11-20T16:49:29.951Z,11.18
2017-11-20T16:51:57.509Z,14.02
2017-11-20T16:54:25.022Z,12.63
2017-11-20T16:57:04.295Z,10.35
2017-11-20T16:59:31.821Z,11.40
2017-11-20T17:05:00.892Z,10.82
2017-11-20T17:07:28.456Z,11.10
2017-11-20T17:09:55.978Z,10.32
2017-11-20T17:12:23.905Z,12.25
2017-11-20T17:14:51.470Z,10.00
2017-11-20T17:17:19.010Z,10.13
2017-11-20T17:19:46.545Z,11.18
2017-11-20T17:22:14.068Z,9.65
2017-11-20T17:24:41.624Z,9.90
2017-11-20T17:27:10.343Z,10.70
2017-11-20T17:29:38.248Z,10.32
2017-11-20T17:32:05.776Z,10.20
2017-11-20T17:34:33.719Z,11.15
2017-11-20T17:37:01.242Z,9.43
2017-11-20T17:39:28.784Z,10.30
2017-11-20T17:41:56.312Z,9.95
2017-11-20T17:44:23.863Z,10.90
2017-11-20T17:46:51.403Z,12.40
2017-11-20T17:49:19.337Z,14.27
2017-11-20T17:51:46.872Z,14.10
2017-11-20T17:54:14.431Z,14.60
2017-11-20T17:56:41.967Z,14.40
2017-11-20T17:59:09.925Z,14.73
2017-11-20T18:01:37.449Z,17.52
2017-11-20T18:04:05.004Z,18.40
2017-11-20T18:06:32.531Z,17.33
2017-11-20T18:09:00.066Z,19.08
2017-11-20T18:11:27.607Z,18.58
2017-11-20T18:13:55.131Z,17.90
2017-11-20T18:16:22.684Z,19.25
2017-11-20T18:18:50.219Z,20.30
2017-11-20T18:21:17.779Z,18.95
2017-11-20T18:23:45.297Z,19.75
2017-11-20T18:26:12.833Z,20.80
2017-11-20T18:28:40.369Z,20.92
2017-11-20T18:31:08.309Z,24.70
2017-11-20T18:33:36.281Z,24.40
2017-11-20T18:36:03.829Z,24.12
2017-11-20T18:38:31.341Z,26.25
2017-11-20T18:40:58.911Z,26.98
2017-11-20T18:43:26.825Z,31.60
2017-11-20T18:45:54.374Z,30.80
2017-11-20T18:48:21.909Z,26.92
2017-11-20T18:50:49.456Z,30.95
2017-11-20T18:53:17.382Z,29.27
2017-11-20T18:55:44.939Z,34.13
2017-11-20T18:58:12.869Z,37.30
2017-11-20T19:03:47.230Z,37.22
2017-11-20T19:06:26.608Z,38.13
2017-11-20T19:09:06.084Z,39.22
2017-11-20T19:11:33.629Z,41.13
2017-11-20T19:14:01.150Z,40.10
2017-11-20T19:16:28.742Z,38.88
2017-11-20T19:18:56.277Z,39.80
2017-11-20T19:21:23.828Z,43.95
2017-11-20T19:23:51.359Z,40.42
2017-11-20T19:26:18.900Z,41.72
2017-11-20T19:28:46.457Z,38.30
2017-11-20T19:31:14.012Z,39.10
2017-11-20T19:33:41.546Z,38.17
2017-11-20T19:36:09.080Z,38.78
2017-11-20T19:38:36.624Z,45.42
2017-11-20T19:41:04.612Z,42.20
2017-11-20T19:43:32.128Z,38.70
2017-11-20T19:45:59.687Z,41.30
2017-11-20T19:48:27.287Z,40.10
2017-11-20T19:50:54.843Z,37.58
2017-11-20T19:53:22.400Z,40.20
2017-11-20T19:55:49.948Z,38.10
2017-11-20T19:58:17.482Z,39.42
2017-11-20T20:00:45.024Z,40.45
2017-11-20T20:03:12.553Z,36.47
2017-11-20T20:05:40.076Z,37.05
2017-11-20T20:08:07.638Z,37.45
2017-11-20T20:10:35.188Z,35.00
2017-11-20T20:13:02.749Z,36.67
2017-11-20T20:15:42.175Z,34.70
2017-11-20T20:18:09.838Z,31.52
2017-11-20T20:20:37.456Z,32.15
2017-11-20T20:23:05.524Z,30.75
2017-11-20T20:25:33.469Z,27.75
2017-11-20T20:28:01.308Z,31.30
2017-11-20T20:30:29.400Z,30.75
2017-11-20T20:32:56.967Z,28.87
2017-11-20T20:35:24.636Z,26.37
2017-11-20T20:37:52.266Z,26.92
2017-11-20T20:40:19.855Z,22.90
2017-11-20T20:42:47.411Z,22.27
2017-11-20T20:45:14.924Z,21.98
2017-11-20T20:47:42.609Z,19.55
2017-11-20T20:50:10.160Z,19.50
2017-11-20T20:52:38.089Z,19.50
2017-11-20T20:55:06.016Z,21.15
2017-11-20T20:57:33.548Z,18.58
2017-11-20T21:00:01.474Z,18.75
2017-11-20T21:02:29.057Z,18.35
2017-11-20T21:04:56.599Z,19.37
2017-11-20T21:07:24.134Z,20.40
2017-11-20T21:09:57.263Z,21.65
2017-11-20T21:12:24.822Z,21.37
2017-11-20T21:14:52.754Z,21.92
2017-11-20T21:17:20.309Z,22.65
2017-11-20T21:19:47.847Z,22.37
2017-11-20T21:22:15.388Z,22.17
2017-11-20T21:24:42.948Z,21.75
2017-11-20T21:27:10.868Z,21.12
2017-11-20T21:29:38.417Z,21.45
2017-11-20T21:32:06.333Z,23.87
2017-11-20T21:34:34.273Z,28.50
2017-11-20T21:37:01.796Z,27.02
2017-11-20T21:39:29.739Z,27.80
2017-11-20T21:41:57.273Z,27.25
2017-11-20T21:44:24.817Z,28.27
2017-11-20T21:46:52.337Z,27.65
2017-11-20T21:49:19.904Z,32.10
2017-11-20T21:51:47.446Z,29.67
2017-11-20T21:54:14.989Z,30.85
2017-11-20T21:56:42.533Z,30.67
2017-11-20T21:59:10.085Z,31.45
2017-11-20T22:01:37.623Z,31.40
2017-11-20T22:04:05.179Z,32.65
2017-11-20T22:06:32.712Z,36.50
2017-11-20T22:09:01.431Z,27.52
2017-11-20T22:11:28.949Z,26.45
2017-11-20T22:13:56.489Z,28.67
2017-11-20T22:16:24.034Z,26.17
2017-11-20T22:18:51.962Z,28.00
2017-11-20T22:21:19.484Z,32.00
2017-11-20T22:23:47.051Z,34.08
2017-11-20T22:26:14.588Z,34.53
2017-11-20T22:28:42.557Z,37.30
2017-11-20T22:31:10.099Z,37.92
2017-11-20T22:33:37.664Z,38.58
2017-11-20T22:36:05.195Z,38.20
2017-11-20T22:38:33.109Z,39.22
2017-11-20T22:41:01.085Z,38.72
2017-11-20T22:43:28.627Z,44.42
2017-11-20T22:45:56.167Z,36.78
2017-11-20T22:48:23.700Z,36.47
2017-11-20T22:50:51.257Z,35.50
2017-11-20T22:53:18.800Z,36.38
2017-11-20T22:55:46.355Z,35.55
2017-11-20T22:58:13.898Z,35.05
2017-11-20T23:00:41.889Z,35.28
2017-11-20T23:03:09.415Z,33.70
2017-11-20T23:05:36.974Z,39.30
2017-11-20T23:08:04.888Z,41.05
2017-11-20T23:10:32.439Z,36.85
2017-11-20T23:13:00.367Z,36.40
2017-11-20T23:15:27.916Z,35.10
2017-11-20T23:17:55.852Z,34.90
2017-11-20T23:20:23.405Z,32.72
2017-11-20T23:22:50.922Z,31.77
2017-11-20T23:25:18.462Z,35.75
2017-11-20T23:27:46.371Z,38.15
2017-11-20T23:30:13.936Z,40.97
2017-11-20T23:32:41.857Z,36.78
2017-11-20T23:35:09.409Z,38.88
2017-11-20T23:37:37.355Z,41.25
2017-11-20T23:40:04.918Z,43.87
2017-11-20T23:42:32.446Z,39.05
2017-11-20T23:44:59.989Z,41.92
2017-11-20T23:47:27.531Z,43.55
2017-11-20T23:49:55.077Z,43.80
2017-11-20T23:52:22.598Z,44.70
2017-11-20T23:54:50.172Z,44.15
2017-11-20T23:57:17.695Z,40.55
2017-11-20T23:59:45.652Z,42.78
